Time;durP1;ratioP1;P1;durP2;ratioP2;P2;SDS_P1;SDS_P2;PMS_P1;PMS_P2;Temp;Humidity;BMP_temperature;BMP_pressure;BME280_temperature;BME280_humidity;BME280_pressure;Samples;Min_cycle;Max_cycle;Signal;HPM_P1;HPM_P2
2022/11/30 00:00:21;;;;;;;36.15;21.17;;;7.60;99.90;;;;;;5051149;28;20040;-71
2022/11/30 00:02:52;;;;;;;37.22;21.67;;;7.60;99.90;;;;;;5072388;28;20049;-71
2022/11/30 00:05:18;;;;;;;36.88;21.17;;;7.50;99.90;;;;;;5056398;28;20041;-71
2022/11/30 00:07:44;;;;;;;36.80;21.35;;;7.50;99.90;;;;;;5054638;28;20044;-71
2022/11/30 00:10:10;;;;;;;37.22;20.23;;;7.50;99.90;;;;;;5055962;28;20086;-72
2022/11/30 00:12:35;;;;;;;40.40;22.88;;;7.60;99.90;;;;;;5072461;28;20124;-71
2022/11/30 00:15:01;;;;;;;41.85;22.25;;;7.50;99.90;;;;;;5072558;28;20551;-71
2022/11/30 00:17:26;;;;;;;39.83;20.98;;;7.60;99.90;;;;;;5051044;28;20366;-71
2022/11/30 00:19:52;;;;;;;37.25;22.15;;;7.50;99.90;;;;;;5056054;28;20519;-71
2022/11/30 00:22:17;;;;;;;41.22;23.52;;;7.50;99.90;;;;;;5052704;28;20507;-71
2022/11/30 00:24:43;;;;;;;43.60;23.73;;;7.50;99.90;;;;;;5055727;28;20550;-71
2022/11/30 00:27:09;;;;;;;42.00;22.38;;;7.50;99.90;;;;;;5070045;28;20614;-71
2022/11/30 00:29:34;;;;;;;40.67;22.48;;;7.50;99.90;;;;;;5064626;28;20516;-71
2022/11/30 00:32:00;;;;;;;37.83;21.10;;;7.40;99.90;;;;;;5035696;28;20045;-71
2022/11/30 00:34:25;;;;;;;42.28;22.88;;;7.40;99.90;;;;;;5052198;28;20040;-71
2022/11/30 00:36:51;;;;;;;40.28;21.73;;;7.40;99.90;;;;;;5053548;28;20127;-71
2022/11/30 00:39:16;;;;;;;41.83;22.85;;;7.40;99.90;;;;;;5055442;28;20047;-71
2022/11/30 00:41:42;;;;;;;40.33;22.45;;;7.40;99.90;;;;;;5071002;28;20043;-71
2022/11/30 00:44:07;;;;;;;41.33;21.50;;;7.40;99.90;;;;;;5072100;28;20374;-71
2022/11/30 00:46:33;;;;;;;42.85;21.90;;;7.40;99.90;;;;;;5071567;28;20381;-71
2022/11/30 00:48:58;;;;;;;41.75;22.40;;;7.50;99.90;;;;;;5071238;28;20405;-71
2022/11/30 00:51:24;;;;;;;37.80;20.35;;;7.40;99.90;;;;;;5048915;28;20397;-71
2022/11/30 00:53:49;;;;;;;41.72;22.65;;;7.40;99.90;;;;;;5052531;28;20468;-71
2022/11/30 00:56:15;;;;;;;41.13;22.25;;;7.40;99.90;;;;;;5055207;28;20039;-71
2022/11/30 00:58:40;;;;;;;48.97;22.38;;;7.40;99.90;;;;;;5070378;28;20032;-71
2022/11/30 01:01:07;;;;;;;41.35;22.38;;;7.30;99.90;;;;;;5055220;28;20040;-71
2022/11/30 01:03:33;;;;;;;43.55;22.85;;;7.30;99.90;;;;;;5070823;28;20447;-71
2022/11/30 01:06:03;;;;;;;41.22;22.77;;;7.30;99.90;;;;;;5070873;28;20531;-71
2022/11/30 01:08:29;;;;;;;41.95;22.20;;;7.30;99.90;;;;;;5070429;28;20082;-71
2022/11/30 01:10:56;;;;;;;40.30;22.25;;;7.20;99.90;;;;;;5059756;28;20037;-71
2022/11/30 01:13:22;;;;;;;44.15;22.23;;;7.20;99.90;;;;;;5061740;28;20048;-71
2022/11/30 01:15:48;;;;;;;42.53;22.50;;;7.20;99.90;;;;;;5078729;28;20401;-71
2022/11/30 01:18:13;;;;;;;46.13;23.10;;;7.20;99.90;;;;;;5077215;28;20043;-71
2022/11/30 01:20:42;;;;;;;39.63;21.27;;;7.20;99.90;;;;;;5078424;28;20076;-71
2022/11/30 01:23:09;;;;;;;42.40;21.35;;;7.20;99.90;;;;;;5040733;28;20078;-71
2022/11/30 01:25:34;;;;;;;46.67;23.67;;;7.20;99.90;;;;;;5027055;28;20053;-71
2022/11/30 01:28:00;;;;;;;41.30;21.10;;;7.20;99.90;;;;;;5064436;28;20044;-71
2022/11/30 01:30:25;;;;;;;43.88;23.45;;;7.20;99.90;;;;;;5061592;28;20044;-71
2022/11/30 01:32:51;;;;;;;39.58;21.30;;;7.20;99.90;;;;;;5078389;28;20166;-71
2022/11/30 01:35:16;;;;;;;43.67;22.95;;;7.20;99.90;;;;;;5078380;28;20448;-71
2022/11/30 01:37:42;;;;;;;44.92;22.38;;;7.20;99.90;;;;;;5076711;28;20067;-71
2022/11/30 01:40:09;;;;;;;42.78;22.40;;;7.20;99.90;;;;;;5061528;28;20408;-71
2022/11/30 01:42:36;;;;;;;42.22;21.85;;;7.20;99.90;;;;;;5078230;28;20116;-71
2022/11/30 01:45:04;;;;;;;44.63;22.67;;;7.20;99.90;;;;;;5078245;28;20044;-71
2022/11/30 01:47:36;;;;;;;40.17;20.98;;;7.20;99.90;;;;;;5076662;28;20472;-71
2022/11/30 01:50:20;;;;;;;;;;;7.20;99.90;;;;;;5078633;28;20041;-71
2022/11/30 01:52:50;;;;;;;38.45;20.88;;;7.30;99.90;;;;;;5061261;28;19924;-71
2022/11/30 01:55:36;;;;;;;41.88;22.38;;;7.30;99.90;;;;;;5052897;28;20119;-71
2022/11/30 01:58:05;;;;;;;37.30;20.27;;;7.20;99.90;;;;;;5049274;28;20063;-71
2022/11/30 02:00:31;;;;;;;41.78;22.40;;;7.30;99.90;;;;;;5078056;28;20043;-71
2022/11/30 02:03:06;;;;;;;37.70;22.08;;;7.20;99.90;;;;;;5077891;28;20091;-71
2022/11/30 02:05:34;;;;;;;39.67;22.20;;;7.20;99.90;;;;;;5078138;28;20037;-71
2022/11/30 02:08:00;;;;;;;37.38;21.20;;;7.20;99.90;;;;;;5076389;28;20036;-71
2022/11/30 02:10:29;;;;;;;42.40;23.30;;;7.20;99.90;;;;;;5078290;28;20086;-71
2022/11/30 02:13:32;;;;;;;38.08;22.23;;;7.20;99.90;;;;;;5078199;28;20033;-71
2022/11/30 02:16:20;;;;;;;36.83;21.05;;;7.20;99.90;;;;;;5076915;28;20116;-71
2022/11/30 02:19:12;;;;;;;41.30;23.05;;;7.20;99.90;;;;;;5041049;28;20040;-71
2022/11/30 02:22:02;;;;;;;37.73;20.87;;;7.20;99.90;;;;;;5038299;28;20044;-71
2022/11/30 02:24:34;;;;;;;41.38;23.70;;;7.20;99.90;;;;;;5054136;28;20540;-74
2022/11/30 02:27:08;;;;;;;44.10;22.05;;;7.20;99.90;;;;;;5040950;28;20516;-71
2022/11/30 02:29:40;;;;;;;38.10;22.80;;;7.10;99.90;;;;;;5073387;28;20067;-71
2022/11/30 02:32:08;;;;;;;39.47;22.53;;;7.10;99.90;;;;;;5074642;28;20040;-71
2022/11/30 02:34:36;;;;;;;37.65;22.75;;;7.10;99.90;;;;;;5058090;28;20273;-71
2022/11/30 02:37:05;;;;;;;37.72;22.40;;;7.10;99.90;;;;;;5073028;28;20051;-71
2022/11/30 02:39:31;;;;;;;34.85;20.85;;;7.10;99.90;;;;;;5074360;28;20052;-71
2022/11/30 02:41:57;;;;;;;37.95;21.67;;;7.10;99.90;;;;;;5073253;28;20056;-71
2022/11/30 02:44:23;;;;;;;36.92;23.00;;;7.10;99.90;;;;;;5074255;28;20127;-71
2022/11/30 02:47:06;;;;;;;39.92;22.95;;;7.10;99.90;;;;;;5072797;28;20519;-71
2022/11/30 02:49:38;;;;;;;41.30;23.52;;;7.00;99.90;;;;;;5069982;28;20114;-71
2022/11/30 02:52:05;;;;;;;34.65;21.02;;;7.10;99.90;;;;;;5067492;28;20041;-71
2022/11/30 02:54:31;;;;;;;36.00;22.10;;;7.10;99.90;;;;;;5073046;28;20385;-71
2022/11/30 02:56:57;;;;;;;34.30;21.23;;;7.10;99.90;;;;;;5072167;28;20400;-71
2022/11/30 02:59:22;;;;;;;38.45;22.27;;;7.10;99.90;;;;;;5073910;28;20036;-71
2022/11/30 03:01:48;;;;;;;43.22;22.92;;;7.10;99.90;;;;;;5057376;28;20044;-71
2022/11/30 03:04:14;;;;;;;36.42;21.05;;;7.10;99.90;;;;;;5056035;28;20063;-71
2022/11/30 03:06:39;;;;;;;36.80;22.00;;;7.10;99.90;;;;;;5038765;28;20068;-71
2022/11/30 03:09:05;;;;;;;40.03;22.85;;;7.10;99.90;;;;;;5056995;28;20045;-71
2022/11/30 03:11:30;;;;;;;36.30;21.75;;;7.10;99.90;;;;;;5057095;28;20544;-71
2022/11/30 03:13:56;;;;;;;36.10;23.02;;;7.10;99.90;;;;;;5057023;28;20040;-71
2022/11/30 03:16:21;;;;;;;37.05;21.50;;;7.10;99.90;;;;;;5055900;28;20127;-71
2022/11/30 03:18:47;;;;;;;41.35;22.60;;;7.10;99.90;;;;;;5055854;28;20485;-71
2022/11/30 03:21:12;;;;;;;36.17;20.73;;;7.20;99.90;;;;;;5048439;28;20485;-71
2022/11/30 03:23:38;;;;;;;37.03;22.17;;;7.20;99.90;;;;;;5037273;28;20450;-71
2022/11/30 03:26:05;;;;;;;36.25;21.75;;;7.20;99.90;;;;;;5052885;28;20040;-71
2022/11/30 03:28:31;;;;;;;36.25;21.65;;;7.20;99.90;;;;;;5056089;28;20045;-71
2022/11/30 03:30:56;;;;;;;33.42;20.55;;;7.20;99.90;;;;;;5073448;28;20033;-71
2022/11/30 03:33:23;;;;;;;39.13;22.75;;;7.20;99.90;;;;;;5054543;28;20043;-71
2022/11/30 03:36:04;;;;;;;36.67;21.75;;;7.10;99.90;;;;;;5073638;28;20044;-71
2022/11/30 03:38:31;;;;;;;36.25;21.70;;;7.20;99.90;;;;;;5056092;28;20037;-71
2022/11/30 03:41:04;;;;;;;32.53;20.77;;;7.20;99.90;;;;;;5073161;28;20186;-71
2022/11/30 03:43:29;;;;;;;37.95;20.52;;;7.10;99.90;;;;;;5055513;28;20127;-71
2022/11/30 03:45:55;;;;;;;34.42;20.08;;;7.10;99.90;;;;;;5073084;28;20133;-71
2022/11/30 03:48:22;;;;;;;36.15;20.35;;;7.20;99.90;;;;;;5054993;28;20105;-71
2022/11/30 03:50:48;;;;;;;35.00;19.40;;;7.20;99.90;;;;;;5066665;28;20398;-71
2022/11/30 03:53:20;;;;;;;35.03;19.48;;;7.20;99.90;;;;;;5048343;28;20086;-71
2022/11/30 03:55:50;;;;;;;33.97;19.33;;;7.20;99.90;;;;;;5025159;28;20033;-71
2022/11/30 03:58:15;;;;;;;36.80;19.50;;;7.20;99.90;;;;;;5050620;28;20386;-72
2022/11/30 04:00:41;;;;;;;36.88;20.50;;;7.20;99.90;;;;;;5055475;28;20051;-71
2022/11/30 04:03:06;;;;;;;39.00;21.90;;;7.10;99.90;;;;;;5072582;28;20524;-71
2022/11/30 04:05:32;;;;;;;37.33;21.23;;;7.10;99.90;;;;;;5056113;28;20459;-71
2022/11/30 04:07:57;;;;;;;33.97;20.20;;;7.10;99.90;;;;;;5054418;28;20041;-71
2022/11/30 04:10:23;;;;;;;35.72;20.27;;;7.10;99.90;;;;;;5055938;28;20036;-71
2022/11/30 04:12:49;;;;;;;35.75;19.90;;;7.10;99.90;;;;;;5071515;28;20443;-71
2022/11/30 04:15:14;;;;;;;35.65;20.58;;;7.10;99.90;;;;;;5056107;28;20085;-71
2022/11/30 04:17:40;;;;;;;36.70;19.55;;;7.10;99.90;;;;;;5054284;28;20493;-71
2022/11/30 04:20:06;;;;;;;35.00;21.02;;;7.10;99.90;;;;;;5055720;28;20477;-71
2022/11/30 04:22:32;;;;;;;35.42;20.92;;;7.10;99.90;;;;;;5047147;28;20040;-71
2022/11/30 04:24:58;;;;;;;38.38;21.58;;;7.10;99.90;;;;;;5072418;28;20052;-71
2022/11/30 04:27:23;;;;;;;37.25;21.20;;;7.10;99.90;;;;;;5069999;28;20033;-71
2022/11/30 04:29:49;;;;;;;35.78;21.33;;;7.10;99.90;;;;;;5054536;28;20036;-71
2022/11/30 04:32:15;;;;;;;39.88;22.23;;;7.10;99.90;;;;;;5072218;28;20032;-71
2022/11/30 04:34:40;;;;;;;36.63;20.52;;;7.10;99.90;;;;;;5055593;28;20036;-71
2022/11/30 04:37:06;;;;;;;37.42;21.77;;;7.10;99.90;;;;;;5054011;28;20417;-71
2022/11/30 04:39:33;;;;;;;36.75;20.83;;;7.10;99.90;;;;;;5070875;28;20040;-71
2022/11/30 04:41:58;;;;;;;36.58;21.30;;;7.10;99.90;;;;;;5054333;28;20036;-71
2022/11/30 04:44:24;;;;;;;38.35;21.10;;;7.10;99.90;;;;;;5070629;28;20097;-71
2022/11/30 04:46:49;;;;;;;36.08;20.98;;;7.10;99.90;;;;;;5047829;28;20042;-71
2022/11/30 04:49:15;;;;;;;36.20;20.73;;;7.10;99.90;;;;;;5033042;28;20080;-71
2022/11/30 04:51:41;;;;;;;37.30;20.25;;;7.10;99.90;;;;;;5049407;28;20041;-71
2022/11/30 04:54:06;;;;;;;39.05;21.25;;;7.10;99.90;;;;;;5035405;28;20036;-71
2022/11/30 04:56:33;;;;;;;37.15;19.50;;;7.00;99.90;;;;;;5045493;28;20029;-71
2022/11/30 04:59:00;;;;;;;38.70;20.00;;;7.00;99.90;;;;;;5038691;28;20444;-71
2022/11/30 05:01:25;;;;;;;37.20;20.27;;;7.10;99.90;;;;;;5037437;28;20044;-72
2022/11/30 05:03:51;;;;;;;38.85;19.92;;;7.10;99.90;;;;;;5055055;28;20056;-71
2022/11/30 05:06:17;;;;;;;38.72;17.80;;;7.10;99.90;;;;;;5066565;28;20518;-71
2022/11/30 05:08:42;;;;;;;37.40;18.83;;;7.10;99.90;;;;;;5069355;28;20045;-71
2022/11/30 05:11:08;;;;;;;36.80;19.73;;;7.10;99.90;;;;;;5072012;28;20040;-71
2022/11/30 05:13:33;;;;;;;38.20;19.10;;;7.00;99.90;;;;;;5066903;28;20037;-71
2022/11/30 05:15:59;;;;;;;36.25;18.95;;;7.10;99.90;;;;;;5053754;28;20404;-71
2022/11/30 05:18:25;;;;;;;40.50;20.83;;;7.10;99.90;;;;;;5036208;28;20130;-71
2022/11/30 05:20:52;;;;;;;39.67;19.92;;;7.00;99.90;;;;;;5052351;28;20553;-71
2022/11/30 05:23:19;;;;;;;43.03;20.92;;;7.00;99.90;;;;;;5038394;28;20397;-71
2022/11/30 05:25:45;;;;;;;45.17;20.75;;;7.00;99.90;;;;;;5062207;28;20075;-71
2022/11/30 05:28:11;;;;;;;43.45;21.85;;;7.00;99.90;;;;;;5055062;28;20135;-71
2022/11/30 05:30:38;;;;;;;44.85;21.75;;;7.00;99.90;;;;;;5050980;28;20437;-71
2022/11/30 05:33:04;;;;;;;46.40;22.48;;;7.00;99.90;;;;;;5071675;28;20037;-71
2022/11/30 05:35:30;;;;;;;48.53;22.83;;;7.00;99.90;;;;;;5070390;28;20554;-71
2022/11/30 05:37:55;;;;;;;44.35;21.08;;;6.90;99.90;;;;;;5054986;28;20044;-71
2022/11/30 05:40:21;;;;;;;42.15;19.73;;;6.90;99.90;;;;;;5067625;28;20068;-71
2022/11/30 05:42:46;;;;;;;43.30;20.38;;;6.90;99.90;;;;;;5052488;28;20094;-71
2022/11/30 05:45:12;;;;;;;43.42;19.90;;;7.00;99.90;;;;;;5051362;28;20400;-71
2022/11/30 05:47:37;;;;;;;47.38;22.27;;;6.90;99.90;;;;;;5039669;28;20039;-71
2022/11/30 05:50:04;;;;;;;45.85;21.67;;;7.00;99.90;;;;;;5033547;28;20558;-71
2022/11/30 05:52:29;;;;;;;46.10;21.83;;;7.00;99.90;;;;;;5051291;28;20037;-71
2022/11/30 05:54:55;;;;;;;49.97;22.65;;;7.00;99.90;;;;;;5054215;28;20036;-71
2022/11/30 05:57:20;;;;;;;43.20;21.92;;;7.00;99.90;;;;;;5051384;28;20103;-71
2022/11/30 05:59:46;;;;;;;46.67;22.48;;;7.00;99.90;;;;;;5036997;28;20052;-71
2022/11/30 06:02:11;;;;;;;46.40;23.80;;;7.00;99.90;;;;;;5075082;28;20040;-71
2022/11/30 06:04:37;;;;;;;51.17;22.90;;;7.00;99.90;;;;;;5072637;28;20479;-71
2022/11/30 06:07:03;;;;;;;42.25;22.80;;;7.00;99.90;;;;;;5046364;28;20390;-71
2022/11/30 06:09:29;;;;;;;49.75;23.08;;;7.00;99.90;;;;;;5036198;28;20072;-71
2022/11/30 06:11:54;;;;;;;47.85;24.10;;;7.00;99.90;;;;;;5029674;28;20033;-71
2022/11/30 06:14:20;;;;;;;49.90;23.70;;;7.00;99.90;;;;;;5051253;28;20032;-71
2022/11/30 06:16:45;;;;;;;46.22;24.13;;;7.00;99.90;;;;;;5057050;28;20040;-71
2022/11/30 06:19:11;;;;;;;44.83;22.48;;;7.10;99.90;;;;;;5069487;28;20125;-71
2022/11/30 06:21:37;;;;;;;45.03;23.67;;;7.00;99.90;;;;;;5040692;28;20128;-71
2022/11/30 06:24:02;;;;;;;44.60;22.27;;;7.00;99.90;;;;;;5035276;28;20063;-71
2022/11/30 06:26:28;;;;;;;45.17;22.30;;;7.00;99.90;;;;;;5052815;28;20036;-71
2022/11/30 06:28:53;;;;;;;46.92;21.77;;;7.00;99.90;;;;;;5060974;28;20046;-71
2022/11/30 06:31:19;;;;;;;40.55;21.60;;;6.90;99.90;;;;;;5042422;28;20128;-71
2022/11/30 06:33:45;;;;;;;41.15;19.50;;;7.00;99.90;;;;;;5065645;28;20040;-71
2022/11/30 06:36:10;;;;;;;38.10;19.00;;;7.00;99.90;;;;;;5053737;28;20473;-71
2022/11/30 06:38:36;;;;;;;37.90;19.80;;;6.90;99.90;;;;;;5068775;28;20048;-71
2022/11/30 06:41:04;;;;;;;36.00;18.83;;;7.00;99.90;;;;;;5056944;28;20032;-71
2022/11/30 06:43:35;;;;;;;34.97;16.67;;;6.90;99.90;;;;;;5056567;28;20045;-71
2022/11/30 06:46:02;;;;;;;34.97;16.67;;;6.90;99.90;;;;;;5053011;28;20413;-71
2022/11/30 06:48:28;;;;;;;31.33;17.58;;;6.90;99.90;;;;;;5038329;28;20478;-71
2022/11/30 06:50:53;;;;;;;32.88;17.83;;;6.80;99.90;;;;;;5059063;28;20044;-71
2022/11/30 06:53:19;;;;;;;32.47;17.08;;;6.80;99.90;;;;;;5030093;28;20029;-71
2022/11/30 06:55:45;;;;;;;31.95;16.88;;;6.80;99.90;;;;;;5037491;28;20072;-71
2022/11/30 06:58:10;;;;;;;30.20;16.67;;;6.80;99.90;;;;;;5069419;28;20040;-71
2022/11/30 07:00:37;;;;;;;28.63;15.32;;;6.80;99.90;;;;;;5048909;28;20044;-71
2022/11/30 07:03:04;;;;;;;30.10;16.75;;;6.80;99.90;;;;;;5073788;28;20068;-71
2022/11/30 07:05:33;;;;;;;27.27;15.25;;;6.90;99.90;;;;;;5055290;28;20036;-71
2022/11/30 07:07:59;;;;;;;27.60;15.70;;;6.80;99.90;;;;;;5062335;28;20044;-71
2022/11/30 07:10:24;;;;;;;26.92;15.32;;;6.80;99.90;;;;;;5055659;28;20127;-71
2022/11/30 07:12:50;;;;;;;26.25;14.95;;;6.80;99.90;;;;;;5056050;28;20107;-71
2022/11/30 07:15:16;;;;;;;27.63;15.27;;;6.80;99.90;;;;;;5054907;28;20048;-71
2022/11/30 07:17:41;;;;;;;27.17;15.07;;;6.80;99.90;;;;;;5038521;28;20123;-71
2022/11/30 07:20:07;;;;;;;25.98;14.93;;;6.80;99.90;;;;;;5049156;28;20028;-71
2022/11/30 07:22:33;;;;;;;29.08;15.25;;;6.80;99.90;;;;;;5039290;28;20110;-71
2022/11/30 07:27:42;;;;;;;26.85;14.98;;;6.80;99.90;;;;;;5071319;28;20045;-71
2022/11/30 07:30:09;;;;;;;24.00;14.07;;;6.80;99.90;;;;;;5073466;28;20077;-71
2022/11/30 07:32:34;;;;;;;26.40;15.38;;;6.80;99.90;;;;;;5056654;28;20065;-71
2022/11/30 07:35:00;;;;;;;31.50;15.65;;;6.80;99.90;;;;;;5057044;28;20068;-71
2022/11/30 07:37:25;;;;;;;26.45;15.23;;;6.80;99.90;;;;;;5055645;28;20040;-71
2022/11/30 07:39:51;;;;;;;31.92;15.70;;;6.80;99.90;;;;;;5054090;28;20044;-71
2022/11/30 07:42:16;;;;;;;28.98;15.38;;;6.80;99.90;;;;;;5073381;28;20087;-71
2022/11/30 07:44:42;;;;;;;26.80;14.65;;;6.80;99.90;;;;;;5056477;28;20041;-71
2022/11/30 07:47:07;;;;;;;26.10;14.32;;;6.80;99.90;;;;;;5054288;28;20029;-71
2022/11/30 07:49:33;;;;;;;23.67;15.27;;;6.80;99.90;;;;;;5035879;28;21575;-71
2022/11/30 07:51:59;;;;;;;18.83;11.65;;;6.80;99.90;;;;;;5049780;28;20036;-78
2022/11/30 07:54:24;;;;;;;25.50;12.60;;;6.80;99.90;;;;;;5070827;28;20036;-77
2022/11/30 07:56:50;;;;;;;26.17;15.38;;;6.90;99.90;;;;;;5037506;28;20120;-70
2022/11/30 07:59:16;;;;;;;24.45;14.13;;;6.80;99.90;;;;;;5016595;28;20038;-70
2022/11/30 08:01:41;;;;;;;22.50;13.90;;;6.90;99.90;;;;;;5016322;28;20534;-70
2022/11/30 08:04:07;;;;;;;22.85;14.00;;;6.90;99.90;;;;;;5016272;28;20061;-70
2022/11/30 08:06:33;;;;;;;22.48;13.52;;;6.80;99.90;;;;;;5032921;28;20382;-70
2022/11/30 08:09:01;;;;;;;21.90;13.82;;;6.80;99.90;;;;;;5016212;28;20494;-70
2022/11/30 08:11:29;;;;;;;26.05;13.98;;;6.80;99.90;;;;;;5032668;28;20041;-70
2022/11/30 08:13:55;;;;;;;21.35;13.07;;;6.80;99.90;;;;;;5016252;28;20654;-70
2022/11/30 08:16:27;;;;;;;24.33;14.13;;;6.80;99.90;;;;;;5016277;28;20048;-70
2022/11/30 08:18:55;;;;;;;21.38;13.23;;;6.80;99.90;;;;;;5042517;28;20094;-70
2022/11/30 08:21:21;;;;;;;20.33;12.63;;;6.80;99.90;;;;;;5050555;28;20037;-70
2022/11/30 08:23:54;;;;;;;21.95;13.55;;;6.80;99.90;;;;;;5052772;28;20093;-70
2022/11/30 08:26:26;;;;;;;23.55;13.98;;;6.80;99.90;;;;;;5052751;28;20398;-70
2022/11/30 08:28:52;;;;;;;19.88;12.75;;;6.70;99.90;;;;;;5035727;28;20041;-70
2022/11/30 08:31:24;;;;;;;20.23;12.65;;;6.80;99.90;;;;;;5052305;28;20044;-70
2022/11/30 08:33:55;;;;;;;22.10;13.75;;;6.70;99.90;;;;;;5035734;28;20033;-70
2022/11/30 08:36:22;;;;;;;18.45;12.65;;;6.80;99.90;;;;;;5035709;28;20048;-70
2022/11/30 08:38:48;;;;;;;20.15;13.20;;;6.80;99.90;;;;;;5052149;28;20090;-70
2022/11/30 08:41:17;;;;;;;19.05;11.90;;;6.80;99.90;;;;;;5052080;28;20040;-70
2022/11/30 08:43:43;;;;;;;20.27;12.88;;;6.80;99.90;;;;;;5035510;28;20045;-70
2022/11/30 08:46:14;;;;;;;19.73;12.73;;;6.80;99.90;;;;;;5052204;28;20128;-70
2022/11/30 08:48:40;;;;;;;19.77;12.82;;;6.80;99.90;;;;;;5034384;28;20049;-70
2022/11/30 08:51:09;;;;;;;18.65;12.85;;;6.80;99.90;;;;;;5050933;28;20033;-70
2022/11/30 08:53:35;;;;;;;19.98;13.05;;;6.80;99.90;;;;;;5051964;28;20040;-70
2022/11/30 08:56:04;;;;;;;18.30;11.68;;;6.80;99.90;;;;;;5035623;28;20040;-70
2022/11/30 08:58:32;;;;;;;18.65;13.07;;;6.70;99.90;;;;;;5052234;28;20440;-70
2022/11/30 09:01:12;;;;;;;17.45;11.70;;;6.70;99.90;;;;;;5051919;28;20037;-70
2022/11/30 09:03:39;;;;;;;17.85;11.68;;;6.70;99.90;;;;;;5051855;28;20053;-70
2022/11/30 09:06:16;;;;;;;17.30;12.65;;;6.70;99.90;;;;;;5051789;28;20052;-70
2022/11/30 09:08:43;;;;;;;18.15;11.85;;;6.70;99.90;;;;;;5051792;28;20048;-70
2022/11/30 09:11:20;;;;;;;18.27;12.25;;;6.70;99.90;;;;;;5052162;28;20041;-70
2022/11/30 09:13:47;;;;;;;19.52;12.45;;;6.70;99.90;;;;;;5051808;28;20033;-70
2022/11/30 09:16:15;;;;;;;19.17;12.25;;;6.80;99.90;;;;;;5035452;28;20041;-70
2022/11/30 09:18:41;;;;;;;18.70;12.18;;;6.70;99.90;;;;;;5051075;28;20480;-70
2022/11/30 09:21:09;;;;;;;19.42;12.48;;;6.80;99.90;;;;;;5051771;28;20094;-70
2022/11/30 09:23:34;;;;;;;18.85;12.70;;;6.90;99.90;;;;;;5035383;28;20370;-70
2022/11/30 09:26:03;;;;;;;21.02;13.82;;;6.80;99.90;;;;;;5034110;28;20187;-70
2022/11/30 09:28:31;;;;;;;19.13;12.18;;;6.80;99.90;;;;;;5051190;28;20045;-70
2022/11/30 09:31:06;;;;;;;19.45;12.63;;;6.90;99.90;;;;;;5052976;28;20443;-70
2022/11/30 09:33:32;;;;;;;18.52;12.82;;;6.80;99.90;;;;;;5055618;28;20079;-70
2022/11/30 09:36:09;;;;;;;21.35;14.07;;;6.80;99.90;;;;;;5039270;28;20389;-70
2022/11/30 09:38:35;;;;;;;22.52;14.40;;;6.80;99.90;;;;;;5056001;28;20033;-70
2022/11/30 09:41:06;;;;;;;20.67;13.60;;;6.80;99.90;;;;;;5039031;28;20067;-70
2022/11/30 09:43:55;;;;;;;26.05;13.90;;;6.80;99.90;;;;;;5055741;28;20049;-70
2022/11/30 09:46:26;;;;;;;20.90;13.85;;;6.80;99.90;;;;;;5055579;28;20056;-70
2022/11/30 09:49:01;;;;;;;23.92;14.93;;;7.00;99.90;;;;;;5038893;28;20037;-70
2022/11/30 09:51:38;;;;;;;24.40;14.95;;;6.90;99.90;;;;;;5055666;28;20401;-70
2022/11/30 09:54:10;;;;;;;22.88;14.75;;;6.90;99.90;;;;;;5038615;28;20041;-70
2022/11/30 09:56:38;;;;;;;24.55;14.45;;;6.90;99.90;;;;;;5037907;28;20037;-70
2022/11/30 09:59:34;;;;;;;21.08;14.20;;;6.90;99.90;;;;;;5038567;28;20045;-70
2022/11/30 10:02:16;;;;;;;24.65;16.02;;;7.00;99.90;;;;;;5042987;28;20108;-70
2022/11/30 10:04:41;;;;;;;24.23;16.20;;;7.00;99.90;;;;;;5038484;28;20443;-70
2022/11/30 10:07:33;;;;;;;25.77;16.50;;;6.90;99.90;;;;;;5038488;28;20129;-70
2022/11/30 10:10:14;;;;;;;24.65;16.15;;;6.90;99.90;;;;;;5055027;28;20045;-70
2022/11/30 10:12:52;;;;;;;25.23;15.60;;;6.90;99.90;;;;;;5054863;28;20052;-70
2022/11/30 10:15:47;;;;;;;24.85;17.02;;;7.00;99.90;;;;;;5038650;28;20449;-70
2022/11/30 10:18:40;;;;;;;25.48;16.60;;;7.00;99.90;;;;;;5026791;28;20080;-70
2022/11/30 10:21:43;;;;;;;26.75;17.60;;;7.00;99.90;;;;;;5038483;28;20041;-70
2022/11/30 10:24:29;;;;;;;26.13;16.52;;;6.90;99.90;;;;;;5053480;28;20037;-70
2022/11/30 10:26:56;;;;;;;26.42;17.48;;;6.90;99.90;;;;;;5054810;28;20044;-70
2022/11/30 10:29:39;;;;;;;27.63;17.45;;;6.90;99.90;;;;;;5037042;28;20045;-70
2022/11/30 10:32:23;;;;;;;29.05;17.95;;;7.00;99.90;;;;;;5037718;28;20033;-70
2022/11/30 10:34:55;;;;;;;27.35;16.58;;;6.90;99.90;;;;;;5033236;28;20045;-70
2022/11/30 10:37:34;;;;;;;28.33;16.58;;;6.90;99.90;;;;;;5054799;28;20409;-70
2022/11/30 10:40:08;;;;;;;25.85;16.33;;;6.90;99.90;;;;;;5038175;28;20067;-70
2022/11/30 10:43:10;;;;;;;26.90;17.23;;;7.00;99.90;;;;;;5037343;28;20045;-70
2022/11/30 10:45:43;;;;;;;28.08;18.13;;;7.00;99.90;;;;;;5011018;28;20132;-70
2022/11/30 10:48:35;;;;;;;26.95;16.90;;;7.00;99.90;;;;;;5054242;28;20134;-70
2022/11/30 10:51:02;;;;;;;27.33;16.25;;;7.00;99.90;;;;;;5037639;28;20037;-70
2022/11/30 10:53:28;;;;;;;27.73;17.20;;;7.00;99.90;;;;;;5053176;28;20037;-70
2022/11/30 10:56:10;;;;;;;27.80;17.55;;;7.00;99.90;;;;;;5053323;28;20515;-70
2022/11/30 10:58:49;;;;;;;27.35;17.48;;;7.00;99.90;;;;;;5054492;28;20052;-70
2022/11/30 11:01:34;;;;;;;25.23;16.88;;;7.00;99.90;;;;;;5037704;28;20102;-70
2022/11/30 11:04:14;;;;;;;25.80;16.80;;;7.00;99.90;;;;;;5037131;28;20048;-70
2022/11/30 11:07:07;;;;;;;25.92;17.45;;;7.00;99.90;;;;;;5053995;28;20052;-70
2022/11/30 11:09:51;;;;;;;26.67;16.92;;;7.00;99.90;;;;;;5037375;28;20409;-70
2022/11/30 11:12:24;;;;;;;25.00;15.82;;;7.00;99.90;;;;;;5053024;28;20116;-70
2022/11/30 11:15:23;;;;;;;28.15;18.08;;;7.00;99.90;;;;;;5037112;28;20037;-70
2022/11/30 11:17:50;;;;;;;27.90;17.33;;;7.00;99.90;;;;;;5045752;28;20517;-70
2022/11/30 11:20:33;;;;;;;23.20;14.95;;;7.00;99.90;;;;;;5053305;28;20083;-86
2022/11/30 11:22:58;;;;;;;25.98;17.08;;;7.10;99.90;;;;;;5061010;28;20032;-71
2022/11/30 11:25:35;;;;;;;25.77;16.88;;;7.10;99.90;;;;;;5050758;28;20044;-71
2022/11/30 11:28:12;;;;;;;23.55;16.13;;;7.10;99.90;;;;;;5071389;28;20512;-71
2022/11/30 11:30:38;;;;;;;24.80;16.05;;;7.10;99.90;;;;;;5054504;28;20064;-71
2022/11/30 11:33:10;;;;;;;24.63;16.65;;;7.10;99.90;;;;;;5073458;28;20121;-71
2022/11/30 11:35:45;;;;;;;24.75;16.38;;;7.00;99.90;;;;;;5073507;28;20044;-71
2022/11/30 11:38:37;;;;;;;23.65;15.93;;;7.10;99.90;;;;;;5054425;28;20485;-71
2022/11/30 11:41:20;;;;;;;23.65;15.73;;;7.10;99.90;;;;;;5053822;28;20036;-71
2022/11/30 11:43:57;;;;;;;23.60;15.93;;;7.10;99.90;;;;;;5071226;28;20550;-71
2022/11/30 11:46:23;;;;;;;25.83;16.00;;;7.10;99.90;;;;;;5056488;28;20048;-71
2022/11/30 11:49:02;;;;;;;23.60;15.73;;;7.10;99.90;;;;;;5055501;28;20032;-71
2022/11/30 11:51:33;;;;;;;22.05;15.65;;;7.10;99.90;;;;;;5071232;28;20044;-71
2022/11/30 11:54:27;;;;;;;25.02;15.55;;;7.10;99.90;;;;;;5028238;28;20072;-71
2022/11/30 11:56:55;;;;;;;27.85;16.00;;;7.10;99.90;;;;;;5051217;28;20040;-71
2022/11/30 11:59:38;;;;;;;25.67;16.58;;;7.10;99.90;;;;;;5057467;28;20085;-71
2022/11/30 12:02:07;;;;;;;26.70;16.40;;;7.10;99.90;;;;;;5071722;28;20123;-71
2022/11/30 12:04:32;;;;;;;26.17;16.63;;;7.10;99.90;;;;;;5070869;28;20048;-71
2022/11/30 12:07:03;;;;;;;27.70;18.10;;;7.10;99.90;;;;;;5056148;28;20554;-71
2022/11/30 12:09:35;;;;;;;25.83;17.38;;;7.10;99.90;;;;;;5030379;28;20438;-71
2022/11/30 12:12:01;;;;;;;25.50;17.08;;;7.10;99.90;;;;;;5046344;28;20036;-71
2022/11/30 12:14:29;;;;;;;24.38;17.58;;;7.10;99.90;;;;;;5041620;28;20048;-71
2022/11/30 12:17:04;;;;;;;32.47;20.35;;;7.10;99.90;;;;;;5057640;28;20033;-71
2022/11/30 12:19:50;;;;;;;32.65;20.63;;;7.10;99.90;;;;;;5044420;28;20091;-71
2022/11/30 12:23:04;;;;;;;28.05;18.77;;;7.00;99.90;;;;;;5045142;28;20048;-71
2022/11/30 12:25:43;;;;;;;30.48;20.27;;;7.00;99.90;;;;;;5043809;28;20048;-71
2022/11/30 12:28:36;;;;;;;32.13;19.98;;;7.00;99.90;;;;;;5035553;28;20459;-71
2022/11/30 12:31:16;;;;;;;32.33;19.50;;;7.00;99.90;;;;;;5028209;28;20041;-71
2022/11/30 12:34:17;;;;;;;31.13;19.35;;;7.10;99.90;;;;;;5051867;28;20059;-71
2022/11/30 12:37:17;;;;;;;31.13;19.77;;;7.00;99.90;;;;;;5057890;28;20397;-71
2022/11/30 12:39:54;;;;;;;32.50;20.38;;;7.00;99.90;;;;;;5069864;28;20400;-71
2022/11/30 12:42:30;;;;;;;33.53;20.33;;;7.10;99.90;;;;;;5048684;28;20033;-71
2022/11/30 12:45:32;;;;;;;31.55;19.60;;;7.10;99.90;;;;;;5071752;28;20052;-71
2022/11/30 12:48:23;;;;;;;31.95;21.27;;;7.10;99.90;;;;;;5051109;28;20110;-71
2022/11/30 12:51:27;;;;;;;37.00;21.35;;;7.10;99.90;;;;;;5033093;28;20034;-71
2022/11/30 12:54:15;;;;;;;36.88;21.05;;;7.00;99.90;;;;;;5035168;28;20048;-71
2022/11/30 12:56:53;;;;;;;35.25;21.80;;;7.00;99.90;;;;;;5051693;28;20052;-71